Marrero, Louisiana
Current Conditions -  °F | °C
As of 7:55 AM on Thursday 29 Jan 2015 (Local Time) from KNBG Reporting Station
Broken Clouds Broken Clouds  
Wind Chill: 55°   Ceiling: 25000
Heat Index: 55°   Visibility: 7mi
Dew Point: 49°   Wind: 6mph
Humidity: 80%   Direction: 140°SE
Pressure: 30.23"   Gusts: NA
Location:  29.9°N, 90.11°W
Report Text: KNBG 291355Z 14005KT 7SM BKN250 13/09 A3023 RMK AO2 SLP235 T01280094 $
Loading
Personal Weather Stations






























Interactive Weather Map New forecast layout! Learn more

10-Day Weather Forecast

Advertisements
Track Severe Weather on mobile